Time;durP1;ratioP1;P1;durP2;ratioP2;P2;SDS_P1;SDS_P2;PMS_P1;PMS_P2;Temp;Humidity;BMP_temperature;BMP_pressure;BME280_temperature;BME280_humidity;BME280_pressure;Samples;Min_cycle;Max_cycle;Signal;HPM_P1;HPM_P2
2022/11/17 00:02:27;;;;;;;381.68;212.42;;;;;;;7.42;90.47;92977.31;1630109;85;21218;-85
2022/11/17 00:04:55;;;;;;;374.62;207.60;;;;;;;7.38;90.52;92982.19;1647302;86;21050;-84
2022/11/17 00:07:22;;;;;;;359.32;196.15;;;;;;;7.35;90.52;92983.13;1646253;85;21002;-85
2022/11/17 00:09:48;;;;;;;347.27;191.73;;;;;;;7.33;90.86;92991.05;1653872;84;21047;-85
2022/11/17 00:15:00;;;;;;;350.35;195.87;;;;;;;7.42;91.17;92984.15;1705997;83;21784;-84
2022/11/17 00:17:28;;;;;;;359.83;194.80;;;;;;;7.43;90.74;92976.09;1704906;83;21042;-85
2022/11/17 00:22:42;;;;;;;378.12;207.55;;;;;;;7.41;90.72;92982.64;1685700;83;21017;-83
2022/11/17 00:25:08;;;;;;;325.18;180.57;;;;;;;7.45;91.17;92970.89;1696435;83;21034;-84
2022/11/17 00:27:37;;;;;;;320.40;183.40;;;;;;;7.45;90.67;92969.53;1691537;83;21164;-83
2022/11/17 00:30:06;;;;;;;312.40;171.40;;;;;;;7.40;90.49;92979.77;1702992;83;20916;-82
2022/11/17 00:35:18;;;;;;;319.25;173.05;;;;;;;7.27;90.49;92972.42;1707180;83;20999;-84
2022/11/17 00:40:30;;;;;;;323.50;178.65;;;;;;;7.22;91.26;92970.34;1700742;83;21263;-84
2022/11/17 00:42:57;;;;;;;333.98;185.78;;;;;;;7.25;91.54;92971.37;1697601;83;21010;-84
2022/11/17 00:45:24;;;;;;;333.17;176.22;;;;;;;7.25;91.54;92968.03;1704612;83;21074;-80
2022/11/17 00:47:50;;;;;;;351.18;183.97;;;;;;;7.23;91.60;92973.22;1701360;83;20931;-82
2022/11/17 00:50:18;;;;;;;317.15;174.72;;;;;;;7.24;91.86;92965.75;1694500;83;21042;-83
2022/11/17 00:52:46;;;;;;;334.70;183.68;;;;;;;7.26;92.16;92960.57;1693128;83;21241;-85
2022/11/17 00:55:13;;;;;;;306.80;164.57;;;;;;;7.28;92.17;92956.16;1687661;83;21073;-85
2022/11/17 00:57:41;;;;;;;247.67;133.37;;;;;;;7.30;92.43;92955.70;1707976;83;21070;-84
2022/11/17 01:00:09;;;;;;;204.20;110.75;;;;;;;7.35;92.72;92952.30;1691246;83;21022;-85
2022/11/17 01:02:37;;;;;;;178.02;94.92;;;;;;;7.44;92.83;92942.03;1695785;83;21580;-83
2022/11/17 01:05:05;;;;;;;149.82;85.42;;;;;;;7.55;92.69;92947.68;1699508;83;21206;-84
2022/11/17 01:07:32;;;;;;;179.23;94.62;;;;;;;7.61;92.23;92940.34;1693174;83;21089;-83
2022/11/17 01:09:59;;;;;;;190.03;107.10;;;;;;;7.58;91.36;92939.92;1702975;83;21043;-81
2022/11/17 01:12:28;;;;;;;196.98;112.57;;;;;;;7.49;91.16;92938.62;1706762;83;21014;-84
2022/11/17 01:14:55;;;;;;;172.00;94.75;;;;;;;7.46;91.58;92938.21;1706266;83;21534;-84
2022/11/17 01:17:22;;;;;;;165.97;86.55;;;;;;;7.48;91.75;92937.13;1687160;83;21781;-83
2022/11/17 01:19:49;;;;;;;133.63;75.10;;;;;;;7.49;91.48;92929.69;1687656;83;20956;-83
2022/11/17 01:22:16;;;;;;;151.65;85.70;;;;;;;7.47;91.44;92936.98;1700283;83;21479;-84
2022/11/17 01:24:43;;;;;;;158.82;90.92;;;;;;;7.42;91.51;92933.55;1662547;84;21053;-84
2022/11/17 01:27:09;;;;;;;189.62;107.05;;;;;;;7.38;91.58;92934.32;1650859;85;21055;-82
2022/11/17 01:29:38;;;;;;;216.75;120.13;;;;;;;7.31;91.61;92936.70;1638773;84;21250;-83
2022/11/17 01:32:04;;;;;;;217.77;123.18;;;;;;;7.23;91.73;92927.33;1654432;84;21028;-84
2022/11/17 01:34:32;;;;;;;210.43;120.08;;;;;;;7.20;92.25;92927.67;1665264;84;20989;-83
2022/11/17 01:39:45;;;;;;;171.37;96.75;;;;;;;7.29;92.75;92928.95;1651480;84;21609;-82
2022/11/17 01:42:21;;;;;;;172.75;96.25;;;;;;;7.31;92.89;92929.86;1659066;84;21243;-84
2022/11/17 01:45:21;;;;;;;166.80;87.22;;;;;;;7.30;92.83;92931.83;1610124;87;21045;-84
2022/11/17 01:47:55;;;;;;;166.00;85.10;;;;;;;7.29;93.07;92933.65;1573362;89;21165;-84
2022/11/17 01:50:38;;;;;;;151.70;84.15;;;;;;;7.34;93.72;92922.81;1601237;88;21065;-83
2022/11/17 01:53:12;;;;;;;157.12;82.25;;;;;;;7.44;94.18;92922.12;1562008;90;21135;-84
2022/11/17 01:55:47;;;;;;;128.07;70.05;;;;;;;7.51;93.58;92921.13;1530651;92;21257;-83
2022/11/17 01:58:20;;;;;;;118.02;67.40;;;;;;;7.48;93.07;92916.61;1474760;95;21226;-82
2022/11/17 02:00:47;;;;;;;101.80;60.03;;;;;;;7.49;93.19;92907.17;1438375;97;21055;-83
2022/11/17 02:03:15;;;;;;;94.87;55.80;;;;;;;7.49;92.99;92916.01;1436621;96;21037;-85
2022/11/17 02:05:55;;;;;;;90.30;56.88;;;;;;;7.47;92.64;92913.73;1484649;95;21014;-84
2022/11/17 02:08:24;;;;;;;100.82;59.35;;;;;;;7.43;92.60;92911.80;1479729;95;21861;-84
2022/11/17 02:10:51;;;;;;;99.30;60.65;;;;;;;7.38;92.68;92907.59;1477528;95;21557;-84
2022/11/17 02:15:55;;;;;;;122.30;65.75;;;;;;;7.40;93.62;92909.24;1397646;101;21158;-83
2022/11/17 02:18:22;;;;;;;104.60;62.17;;;;;;;7.47;93.58;92904.16;1391296;100;21114;-84
2022/11/17 02:21:33;;;;;;;112.83;64.95;;;;;;;7.48;93.28;92905.66;1394642;101;21287;-84
2022/11/17 02:24:34;;;;;;;100.10;57.78;;;;;;;7.47;93.12;92908.26;1405746;100;21106;-82
2022/11/17 02:27:25;;;;;;;95.83;53.35;;;;;;;7.47;93.48;92908.26;1358672;103;21077;-84
2022/11/17 02:30:02;;;;;;;74.05;45.08;;;;;;;7.57;93.95;92906.19;1354385;104;21156;-84
2022/11/17 02:32:53;;;;;;;68.62;42.60;;;;;;;7.66;93.87;92903.36;1357500;102;21620;-84
2022/11/17 02:35:44;;;;;;;73.67;45.58;;;;;;;7.71;93.25;92893.86;1289966;108;21367;-85
2022/11/17 02:38:26;;;;;;;65.75;43.70;;;;;;;7.70;92.63;92897.82;1281994;110;21154;-84
2022/11/17 02:41:09;;;;;;;67.62;42.05;;;;;;;7.64;92.53;92894.84;1280176;111;21207;-85
2022/11/17 02:44:03;;;;;;;70.50;44.00;;;;;;;7.60;92.47;92895.06;1290688;109;21363;-84
2022/11/17 02:46:57;;;;;;;68.15;41.25;;;;;;;7.56;92.60;92901.94;1212006;115;21776;-83
2022/11/17 02:49:28;;;;;;;52.73;33.20;;;;;;;7.54;92.79;92899.66;1208314;116;21280;-84
2022/11/17 02:51:56;;;;;;;47.15;30.88;;;;;;;7.51;92.70;92891.03;1201188;116;26836;-85
2022/11/17 02:54:26;;;;;;;45.52;29.77;;;;;;;7.54;93.20;92892.83;1204275;116;21166;-83
2022/11/17 02:56:53;;;;;;;60.38;38.20;;;;;;;7.55;93.32;92896.33;1206206;116;21297;-84
2022/11/17 02:59:32;;;;;;;60.08;35.68;;;;;;;7.56;93.42;92895.84;1208946;116;21137;-85
2022/11/17 03:02:33;;;;;;;54.80;33.73;;;;;;;7.51;93.09;92895.14;1228483;111;21446;-85
2022/11/17 03:05:20;;;;;;;41.23;28.15;;;;;;;7.45;93.42;92892.16;1306562;106;21093;-84
2022/11/17 03:08:08;;;;;;;40.45;25.40;;;;;;;7.46;93.58;92880.00;1350860;103;22348;-85
2022/11/17 03:10:43;;;;;;;36.50;26.17;;;;;;;7.46;93.77;92881.36;1368445;103;22469;-83
2022/11/17 03:13:21;;;;;;;44.38;28.15;;;;;;;7.47;94.27;92883.64;1375848;102;21172;-83
2022/11/17 03:15:56;;;;;;;49.20;31.75;;;;;;;7.50;94.26;92875.85;1353988;103;21947;-84
2022/11/17 03:18:54;;;;;;;53.90;34.43;;;;;;;7.58;94.65;92876.23;1358875;102;21287;-85
2022/11/17 03:21:35;;;;;;;50.85;33.08;;;;;;;7.60;93.89;92877.88;1354452;103;21294;-84
2022/11/17 03:24:20;;;;;;;49.60;33.63;;;;;;;7.53;93.63;92869.43;1379324;101;21192;-84
2022/11/17 03:26:59;;;;;;;61.65;41.85;;;;;;;7.43;93.87;92872.14;1358118;102;21226;-84
2022/11/17 03:29:27;;;;;;;223.00;131.75;;;;;;;7.45;94.29;92870.28;1327278;106;21924;-84
2022/11/17 03:31:57;;;;;;;188.15;108.40;;;;;;;7.47;94.24;92868.59;1335919;105;21099;-84
2022/11/17 03:34:24;;;;;;;149.60;82.47;;;;;;;7.47;94.42;92864.49;1371450;103;21218;-83
2022/11/17 03:36:55;;;;;;;76.92;43.30;;;;;;;7.56;94.87;92860.27;1368757;103;21229;-83
2022/11/17 03:39:30;;;;;;;26.25;20.17;;;;;;;7.63;94.48;92856.41;1371987;103;21120;-84
2022/11/17 03:42:07;;;;;;;24.87;18.27;;;;;;;7.60;93.91;92849.91;1400846;97;21865;-84
2022/11/17 03:44:36;;;;;;;17.37;13.58;;;;;;;7.55;93.55;92847.08;1406629;100;21506;-83
2022/11/17 03:47:05;;;;;;;20.05;16.07;;;;;;;7.55;93.66;92847.83;1412710;100;21779;-83
2022/11/17 03:49:46;;;;;;;18.52;15.53;;;;;;;7.54;93.39;92845.58;1399385;100;21172;-83
2022/11/17 03:52:13;;;;;;;40.05;26.73;;;;;;;7.56;93.61;92846.59;1398662;100;21709;-85
2022/11/17 03:54:40;;;;;;;37.48;24.07;;;;;;;7.59;93.09;92845.67;1397325;101;21258;-84
2022/11/17 03:57:14;;;;;;;69.40;35.85;;;;;;;7.54;92.66;92841.47;1345503;102;22130;-85
2022/11/17 03:59:55;;;;;;;72.15;38.35;;;;;;;7.47;92.47;92838.50;1381797;101;21224;-83
2022/11/17 04:02:24;;;;;;;54.67;29.30;;;;;;;7.42;92.30;92836.44;1398900;102;21205;-82
2022/11/17 08:08:38;;;;;;;6.83;5.60;;;;;;;4.48;88.41;92911.92;1756984;79;26350;-91
2022/11/17 08:11:10;;;;;;;6.35;5.22;;;;;;;4.46;88.62;92914.94;1721963;81;21050;-89
2022/11/17 08:13:45;;;;;;;5.87;4.87;;;;;;;4.50;88.37;92913.59;1677405;83;21153;-86
2022/11/17 08:16:15;;;;;;;6.20;5.60;;;;;;;4.48;88.10;92918.73;1712814;82;21009;-83
2022/11/17 08:18:44;;;;;;;6.37;5.75;;;;;;;4.48;88.17;92909.80;1700576;82;21098;-87
2022/11/17 08:21:13;;;;;;;9.45;8.43;;;;;;;4.51;88.04;92925.22;1704516;82;21636;-87
2022/11/17 08:23:40;;;;;;;7.42;6.80;;;;;;;4.53;88.14;92923.56;1719358;81;21620;-87
2022/11/17 08:26:09;;;;;;;8.00;6.75;;;;;;;4.57;87.76;92928.25;1702556;82;21175;-87
2022/11/17 08:28:38;;;;;;;16.40;12.80;;;;;;;4.55;87.30;92921.73;1664584;83;21138;-81
2022/11/17 08:31:06;;;;;;;20.02;15.90;;;;;;;4.50;87.50;92928.56;1686171;83;21037;-89
2022/11/17 08:33:43;;;;;;;25.70;17.50;;;;;;;4.55;87.71;92917.06;1660669;83;21331;-88
2022/11/17 08:36:13;;;;;;;15.83;13.80;;;;;;;4.59;87.95;92923.11;1643839;85;21122;-81
2022/11/17 08:38:56;;;;;;;21.50;12.85;;;;;;;4.66;88.79;92922.83;1642993;84;21090;-88
2022/11/17 08:41:28;;;;;;;15.08;10.53;;;;;;;4.72;88.40;92922.36;1636415;84;21167;-85
2022/11/17 08:44:05;;;;;;;23.40;16.67;;;;;;;4.78;88.39;92923.27;1652629;85;21131;-87
2022/11/17 08:46:34;;;;;;;26.15;16.55;;;;;;;4.84;88.30;92929.64;1628923;86;21099;-89
2022/11/17 08:49:09;;;;;;;41.40;27.52;;;;;;;4.86;88.34;92920.40;1627042;86;21343;-90
2022/11/17 08:51:45;;;;;;;26.33;18.25;;;;;;;4.89;88.38;92928.25;1601937;87;21781;-92
2022/11/17 08:54:24;;;;;;;31.20;16.27;;;;;;;4.94;88.20;92936.58;1518040;93;21186;-92
2022/11/17 08:57:03;;;;;;;12.10;9.18;;;;;;;5.01;88.15;92940.34;1560772;90;21229;-91
2022/11/17 08:59:45;;;;;;;12.18;9.55;;;;;;;5.05;87.52;92938.25;1508449;91;21070;-91
2022/11/17 09:02:17;;;;;;;16.32;12.65;;;;;;;5.03;87.25;92940.67;1500622;92;21168;-87
2022/11/17 09:04:47;;;;;;;18.45;13.32;;;;;;;5.03;87.36;92942.63;1439008;97;21426;-89
2022/11/17 09:07:16;;;;;;;22.77;14.75;;;;;;;5.09;87.45;92938.84;1428245;98;21282;-87
2022/11/17 09:09:50;;;;;;;30.15;17.90;;;;;;;5.14;87.16;92946.40;1439395;97;21147;-90
2022/11/17 09:12:26;;;;;;;17.20;12.70;;;;;;;5.18;86.92;92944.89;1433989;96;21159;-90
2022/11/17 09:14:57;;;;;;;17.40;13.08;;;;;;;5.15;86.27;92943.83;1438097;97;21249;-91
2022/11/17 09:17:32;;;;;;;27.13;19.10;;;;;;;5.10;86.24;92947.76;1464850;96;21411;-88
2022/11/17 09:20:07;;;;;;;15.00;11.60;;;;;;;5.04;86.37;92943.55;1480920;95;21649;-84
2022/11/17 09:22:49;;;;;;;16.85;15.05;;;;;;;5.05;86.04;92934.75;1477005;95;21116;-83
2022/11/17 09:25:21;;;;;;;16.10;14.20;;;;;;;5.01;86.15;92936.26;1491367;93;21173;-81
2022/11/17 09:28:04;;;;;;;21.85;16.32;;;;;;;5.04;85.86;92942.78;1463823;95;21084;-84
2022/11/17 09:30:36;;;;;;;41.13;26.02;;;;;;;5.04;85.80;92935.37;1451864;95;21111;-89
2022/11/17 09:33:18;;;;;;;49.30;31.77;;;;;;;5.04;85.25;92940.83;1471329;96;21136;-89
2022/11/17 09:35:46;;;;;;;30.30;20.50;;;;;;;4.91;84.81;92944.30;1492520;93;21109;-88
2022/11/17 09:38:22;;;;;;;45.75;29.57;;;;;;;4.74;84.69;92953.98;1456511;96;21414;-86
2022/11/17 09:40:59;;;;;;;57.48;36.28;;;;;;;4.73;85.69;92952.47;1491662;94;21222;-83
2022/11/17 09:43:52;;;;;;;46.95;31.55;;;;;;;4.73;85.25;92948.38;1459377;93;21193;-87
2022/11/17 09:52:35;;;;;;;50.43;30.27;;;;;;;4.95;85.09;92944.90;1442160;97;21113;-88
2022/11/17 09:55:36;;;;;;;27.42;20.15;;;;;;;4.95;84.43;92949.61;1474787;94;21064;-87
2022/11/17 09:58:44;;;;;;;28.38;20.08;;;;;;;4.95;84.35;92947.62;1450835;97;21310;-86
2022/11/17 10:01:24;;;;;;;32.20;21.68;;;;;;;4.85;83.85;92943.41;1433587;97;21047;-87
2022/11/17 10:03:58;;;;;;;62.60;33.95;;;;;;;4.76;83.92;92945.38;1429385;95;21394;-91
2022/11/17 13:35:31;;;;;;;16.45;10.45;;;;;;;4.46;85.35;93017.02;1764824;79;26354;-84
2022/11/17 14:06:16;;;;;;;10.90;8.83;;;;;;;4.50;85.19;93044.84;1714655;82;21549;-87
2022/11/17 14:12:25;;;;;;;30.68;17.70;;;;;;;4.61;85.02;93047.92;1813328;77;26309;-90
2022/11/17 14:14:52;;;;;;;33.92;19.32;;;;;;;4.61;84.84;93054.10;1816075;78;20997;-86
2022/11/17 14:17:27;;;;;;;16.27;12.50;;;;;;;4.63;84.57;93058.49;1793627;79;20983;-89
2022/11/17 14:20:20;;;;;;;17.02;12.82;;;;;;;4.64;84.39;93054.56;1801366;78;21551;-85
2022/11/17 14:26:38;;;;;;;34.65;20.65;;;;;;;4.64;83.78;93063.34;1646211;85;21116;-88
2022/11/17 14:29:11;;;;;;;30.52;16.62;;;;;;;4.56;83.36;93060.15;1591989;85;21664;-83
2022/11/17 14:31:45;;;;;;;30.52;17.60;;;;;;;4.43;83.35;93056.77;1605149;87;21282;-88
2022/11/17 14:34:16;;;;;;;34.85;18.98;;;;;;;4.33;83.24;93056.60;1636557;85;21109;-85
2022/11/17 14:36:57;;;;;;;27.97;16.07;;;;;;;4.27;83.54;93061.71;1657000;85;21090;-86
2022/11/17 14:39:42;;;;;;;30.75;20.32;;;;;;;4.27;83.74;93054.91;1639662;85;21151;-88
2022/11/17 14:42:16;;;;;;;35.03;20.82;;;;;;;4.28;83.56;93052.34;1617613;86;21183;-85
2022/11/17 14:44:51;;;;;;;23.12;16.20;;;;;;;4.22;83.57;93063.05;1584223;87;20977;-88
2022/11/17 14:47:20;;;;;;;25.30;17.07;;;;;;;4.21;83.87;93061.53;1542569;91;21086;-86
2022/11/17 14:49:47;;;;;;;22.75;15.40;;;;;;;4.25;83.84;93055.34;1524137;93;21087;-87
2022/11/17 14:52:19;;;;;;;23.62;16.32;;;;;;;4.24;83.75;93052.47;1542644;89;21127;-86
2022/11/17 14:55:11;;;;;;;23.83;14.73;;;;;;;4.23;83.71;93055.03;1485243;91;21094;-88
2022/11/17 14:57:49;;;;;;;23.75;15.60;;;;;;;4.19;83.58;93066.66;1494221;94;21048;-90
2022/11/17 15:00:19;;;;;;;27.65;18.98;;;;;;;4.17;83.50;93079.96;1510010;93;21156;-86
2022/11/17 15:02:50;;;;;;;38.88;23.18;;;;;;;4.20;83.50;93072.27;1511910;93;21075;-85
2022/11/17 15:05:19;;;;;;;42.95;26.27;;;;;;;4.21;83.28;93061.53;1493264;94;21144;-85
2022/11/17 15:07:55;;;;;;;40.55;25.30;;;;;;;4.16;83.37;93071.64;1499284;94;21495;-86
2022/11/17 15:10:23;;;;;;;41.48;24.55;;;;;;;4.14;83.55;93066.48;1561258;90;21216;-86
2022/11/17 15:12:52;;;;;;;33.95;21.00;;;;;;;4.18;83.82;93063.79;1600491;87;21004;-89
2022/11/17 15:15:21;;;;;;;24.15;16.15;;;;;;;4.26;83.53;93059.58;1598437;87;20974;-87
2022/11/17 15:17:48;;;;;;;17.75;12.03;;;;;;;4.25;83.42;93050.52;1631320;87;21171;-90
2022/11/17 15:20:18;;;;;;;16.52;12.50;;;;;;;4.25;83.29;93062.14;1619746;86;21045;-88
2022/11/17 15:22:53;;;;;;;14.37;11.40;;;;;;;4.26;83.51;93058.22;1627671;81;24654;31
2022/11/17 15:25:21;;;;;;;17.30;13.48;;;;;;;4.33;83.44;93065.36;1665706;82;21033;-88
2022/11/17 15:27:49;;;;;;;14.20;11.40;;;;;;;4.36;83.10;93071.26;1684802;84;21092;-89
2022/11/17 15:30:17;;;;;;;15.85;12.70;;;;;;;4.37;82.31;93076.27;1704390;83;21089;-89
2022/11/17 15:32:47;;;;;;;22.82;16.75;;;;;;;4.38;82.20;93076.42;1677539;84;21055;-88
2022/11/17 15:35:18;;;;;;;39.08;24.27;;;;;;;4.31;82.27;93062.33;1584957;87;21963;-88
2022/11/17 15:37:49;;;;;;;47.78;28.98;;;;;;;4.35;82.55;93053.41;1582602;88;21035;-87
2022/11/17 15:40:20;;;;;;;53.92;31.85;;;;;;;4.43;82.45;93059.49;1599785;89;21010;-87
2022/11/17 15:42:47;;;;;;;48.87;30.27;;;;;;;4.45;82.54;93051.63;1556284;89;21038;-87
2022/11/17 15:45:15;;;;;;;43.17;26.25;;;;;;;4.50;82.33;93053.79;1570595;87;21157;-84
2022/11/17 15:47:42;;;;;;;37.23;23.90;;;;;;;4.50;82.21;93060.59;1564726;88;21171;-86
2022/11/17 15:50:09;;;;;;;20.17;15.28;;;;;;;4.49;81.92;93061.80;1565226;89;21183;-86
2022/11/17 15:52:37;;;;;;;19.65;13.83;;;;;;;4.51;81.81;93068.91;1560580;89;21203;-86
2022/11/17 15:55:07;;;;;;;13.48;12.07;;;;;;;4.49;81.24;93065.89;1564896;89;21158;-86
